createdAt,value
2024-03-09T00:00:45.187Z,60.67
2024-03-09T00:03:41.294Z,69.80
2024-03-09T00:06:28.712Z,69.26
2024-03-09T00:09:16.014Z,65.79
2024-03-09T00:12:09.401Z,63.93
2024-03-09T00:14:57.153Z,62.04
2024-03-09T00:17:45.660Z,59.31
2024-03-09T00:20:36.688Z,57.97
2024-03-09T00:23:28.024Z,60.59
2024-03-09T00:26:15.481Z,64.03
2024-03-09T00:29:03.972Z,67.51
2024-03-09T00:31:53.303Z,66.78
2024-03-09T00:34:40.913Z,66.09
2024-03-09T00:37:28.300Z,64.11
2024-03-09T00:40:16.209Z,59.43
2024-03-09T00:43:08.467Z,58.00
2024-03-09T00:45:56.480Z,58.67
2024-03-09T00:48:44.909Z,58.73
2024-03-09T00:51:32.620Z,60.51
2024-03-09T00:54:20.418Z,63.00
2024-03-09T00:57:07.651Z,66.88
2024-03-09T00:59:55.675Z,66.25
2024-03-09T01:02:45.906Z,64.09
2024-03-09T01:05:34.278Z,61.54
2024-03-09T01:08:21.691Z,61.06
2024-03-09T01:11:09.733Z,59.05
2024-03-09T01:13:57.935Z,56.74
2024-03-09T01:16:46.404Z,58.00
2024-03-09T01:19:33.982Z,59.93
2024-03-09T01:22:22.305Z,62.07
2024-03-09T01:25:10.237Z,67.49
2024-03-09T01:27:57.943Z,67.72
2024-03-09T01:30:46.578Z,66.27
2024-03-09T01:33:34.293Z,65.39
2024-03-09T01:36:24.142Z,63.34
2024-03-09T01:39:11.790Z,60.83
2024-03-09T01:41:59.147Z,57.55
2024-03-09T01:44:52.101Z,58.55
2024-03-09T01:47:40.736Z,58.74
2024-03-09T01:50:28.619Z,62.31
2024-03-09T01:53:19.421Z,67.63
2024-03-09T01:56:13.045Z,67.01
2024-03-09T01:59:01.292Z,66.14
2024-03-09T02:01:52.573Z,63.27
2024-03-09T02:04:42.387Z,60.83
2024-03-09T02:07:31.641Z,59.70
2024-03-09T02:10:19.955Z,56.75
2024-03-09T02:13:07.801Z,57.84
2024-03-09T02:15:55.488Z,61.20
2024-03-09T02:18:46.542Z,60.47
2024-03-09T02:21:36.240Z,65.68
2024-03-09T02:24:30.362Z,68.34
2024-03-09T02:27:20.181Z,66.08
2024-03-09T02:30:09.813Z,65.43
2024-03-09T02:32:58.932Z,63.35
2024-03-09T02:35:46.615Z,60.22
2024-03-09T02:38:33.880Z,57.92
2024-03-09T02:41:22.582Z,57.95
2024-03-09T02:44:14.260Z,61.43
2024-03-09T02:47:01.899Z,66.69
2024-03-09T02:49:51.279Z,66.82
2024-03-09T02:52:39.012Z,64.11
2024-03-09T02:55:28.320Z,61.48
2024-03-09T02:58:17.879Z,61.46
2024-03-09T03:01:09.150Z,59.72
2024-03-09T03:04:03.976Z,56.00
2024-03-09T03:06:51.871Z,56.25
2024-03-09T03:09:39.259Z,57.66
2024-03-09T03:12:27.614Z,59.77
2024-03-09T03:15:15.766Z,60.56
2024-03-09T03:18:03.248Z,63.25
2024-03-09T03:20:50.967Z,66.69
2024-03-09T03:23:38.388Z,64.99
2024-03-09T03:26:25.772Z,63.28
2024-03-09T03:29:13.171Z,61.99
2024-03-09T03:32:02.806Z,61.25
2024-03-09T03:34:50.607Z,59.10
2024-03-09T03:37:38.514Z,56.31
2024-03-09T03:40:25.989Z,56.90
2024-03-09T03:43:13.656Z,59.32
2024-03-09T03:46:02.561Z,59.75
2024-03-09T03:48:50.315Z,64.94
2024-03-09T03:51:39.334Z,68.14
2024-03-09T03:54:27.188Z,66.53
2024-03-09T03:57:14.820Z,63.06
2024-03-09T04:00:02.266Z,60.08
2024-03-09T04:02:53.446Z,57.80
2024-03-09T04:05:41.048Z,57.73
2024-03-09T04:08:29.175Z,61.06
2024-03-09T04:11:16.626Z,64.71
2024-03-09T04:14:05.564Z,66.20
2024-03-09T04:16:56.422Z,64.77
2024-03-09T04:19:44.253Z,63.34
2024-03-09T04:22:35.217Z,62.20
2024-03-09T04:25:24.056Z,61.25
2024-03-09T04:28:22.433Z,59.22
2024-03-09T04:31:10.901Z,56.06
2024-03-09T04:33:58.565Z,57.56
2024-03-09T04:36:47.253Z,59.62
2024-03-09T04:39:39.962Z,63.54
2024-03-09T04:42:29.858Z,65.93
2024-03-09T04:45:21.076Z,63.57
2024-03-09T04:48:11.027Z,60.27
2024-03-09T04:50:59.074Z,58.38
2024-03-09T04:53:46.757Z,57.18
2024-03-09T04:56:34.587Z,58.09
2024-03-09T04:59:22.061Z,61.41
2024-03-09T05:02:09.707Z,67.28
2024-03-09T05:04:57.336Z,68.15
2024-03-09T05:07:47.563Z,66.66
2024-03-09T05:10:35.018Z,63.52
2024-03-09T05:13:22.289Z,61.87
2024-03-09T05:16:09.742Z,61.02
2024-03-09T05:18:57.323Z,57.33
2024-03-09T05:21:46.016Z,55.23
2024-03-09T05:24:33.291Z,57.62
2024-03-09T05:27:21.152Z,58.80
2024-03-09T05:30:16.436Z,60.83
2024-03-09T05:33:11.006Z,63.23
2024-03-09T05:35:58.689Z,65.94
2024-03-09T05:38:50.041Z,64.24
2024-03-09T05:41:38.538Z,61.47
2024-03-09T05:44:27.167Z,60.66
2024-03-09T05:47:15.165Z,56.46
2024-03-09T05:50:02.888Z,56.30
2024-03-09T05:52:55.233Z,60.19
2024-03-09T05:55:45.295Z,60.22
2024-03-09T05:58:33.793Z,64.30
2024-03-09T06:01:28.665Z,66.46
2024-03-09T06:04:16.642Z,65.20
2024-03-09T06:07:04.298Z,61.70
2024-03-09T06:09:51.531Z,57.96
2024-03-09T06:12:39.695Z,57.51
2024-03-09T06:15:29.133Z,59.07
2024-03-09T06:18:20.823Z,62.11
2024-03-09T06:21:08.564Z,64.98
2024-03-09T06:23:56.470Z,64.04
2024-03-09T06:26:44.377Z,61.61
2024-03-09T06:29:32.984Z,58.74
2024-03-09T06:32:20.619Z,57.15
2024-03-09T06:35:08.674Z,58.79
2024-03-09T06:38:06.755Z,58.87
2024-03-09T06:40:54.709Z,63.88
2024-03-09T06:43:42.425Z,63.64
2024-03-09T06:46:30.324Z,62.54
2024-03-09T06:49:19.450Z,58.95
2024-03-09T06:52:07.424Z,56.13
2024-03-09T06:54:55.057Z,57.25
2024-03-09T06:57:42.748Z,58.96
2024-03-09T07:00:32.401Z,60.42
2024-03-09T07:03:20.224Z,64.31
2024-03-09T07:06:09.946Z,63.79
2024-03-09T07:08:59.244Z,61.35
2024-03-09T07:11:46.804Z,55.34
2024-03-09T07:14:34.527Z,54.77
2024-03-09T07:17:22.538Z,57.47
2024-03-09T07:20:14.210Z,59.76
2024-03-09T07:23:02.067Z,60.61
2024-03-09T07:25:50.527Z,62.12
2024-03-09T07:28:38.246Z,64.62
2024-03-09T07:31:28.952Z,62.80
2024-03-09T07:34:19.193Z,61.56
2024-03-09T07:37:06.578Z,55.62
2024-03-09T07:39:54.994Z,55.03
2024-03-09T07:42:44.287Z,57.88
2024-03-09T07:45:32.420Z,58.95
2024-03-09T07:48:19.671Z,59.74
2024-03-09T07:51:11.475Z,61.34
2024-03-09T07:54:00.080Z,62.80
2024-03-09T07:56:47.697Z,62.66
2024-03-09T07:59:35.114Z,60.03
2024-03-09T08:02:22.736Z,55.65
2024-03-09T08:05:15.572Z,55.42
2024-03-09T08:08:11.348Z,58.66
2024-03-09T08:10:59.709Z,59.89
2024-03-09T08:13:47.740Z,60.49
2024-03-09T08:16:35.326Z,62.09
2024-03-09T08:19:23.514Z,60.17
2024-03-09T08:22:12.260Z,56.44
2024-03-09T08:24:59.753Z,55.69
2024-03-09T08:27:48.884Z,51.70
2024-03-09T08:30:36.408Z,56.47
2024-03-09T08:33:24.229Z,58.11
2024-03-09T08:36:14.040Z,57.75
2024-03-09T08:39:02.176Z,59.44
2024-03-09T08:41:50.238Z,59.07
2024-03-09T08:44:38.232Z,58.96
2024-03-09T08:47:26.350Z,57.67
2024-03-09T08:50:14.533Z,55.16
2024-03-09T08:53:02.306Z,47.58
2024-03-09T08:55:50.095Z,50.11
2024-03-09T08:58:39.332Z,47.16
2024-03-09T09:01:27.181Z,45.17
2024-03-09T09:04:14.704Z,44.66
2024-03-09T09:07:03.182Z,41.69
2024-03-09T09:09:51.538Z,37.26
2024-03-09T09:12:40.853Z,38.45
2024-03-09T09:15:28.677Z,38.11
2024-03-09T09:18:16.380Z,37.18
2024-03-09T09:21:04.060Z,36.46
2024-03-09T09:23:51.735Z,35.57
2024-03-09T09:26:39.391Z,33.17
2024-03-09T09:29:30.357Z,31.49
2024-03-09T09:32:21.318Z,30.84
2024-03-09T09:35:10.508Z,30.99
2024-03-09T09:37:59.991Z,29.86
2024-03-09T09:40:52.777Z,29.28
2024-03-09T09:43:40.943Z,28.20
2024-03-09T09:46:30.670Z,28.34
2024-03-09T09:49:18.736Z,28.08
2024-03-09T09:52:08.633Z,28.14
2024-03-09T09:54:57.913Z,27.61
2024-03-09T09:57:47.463Z,26.76
2024-03-09T10:00:35.289Z,26.43
2024-03-09T10:03:23.105Z,26.36
2024-03-09T10:06:22.845Z,25.71
2024-03-09T10:09:10.470Z,25.91
2024-03-09T10:11:58.300Z,25.06
2024-03-09T10:14:46.676Z,24.61
2024-03-09T10:17:35.776Z,24.58
2024-03-09T10:20:23.559Z,24.78
2024-03-09T10:23:15.383Z,24.17
2024-03-09T10:26:07.982Z,24.06
2024-03-09T10:29:00.020Z,23.92
2024-03-09T10:31:51.678Z,23.45
2024-03-09T10:34:39.879Z,23.32
2024-03-09T10:37:27.843Z,22.20
2024-03-09T10:40:15.544Z,23.13
2024-03-09T10:43:03.341Z,22.93
2024-03-09T10:45:54.588Z,22.83
2024-03-09T10:48:49.661Z,23.18
2024-03-09T10:51:51.879Z,23.42
2024-03-09T10:54:56.466Z,23.44
2024-03-09T10:57:45.747Z,23.57
2024-03-09T11:00:34.756Z,23.50
2024-03-09T11:03:25.369Z,23.48
2024-03-09T11:06:14.480Z,23.65
2024-03-09T11:09:07.577Z,23.39
2024-03-09T11:11:55.253Z,23.23
2024-03-09T11:14:51.715Z,23.19
2024-03-09T11:17:43.858Z,23.23
2024-03-09T11:20:31.699Z,23.10
2024-03-09T11:23:25.013Z,23.26
2024-03-09T11:26:15.119Z,22.94
2024-03-09T11:29:02.988Z,23.48
2024-03-09T11:32:07.208Z,23.61
2024-03-09T11:35:32.193Z,23.62
2024-03-09T11:38:22.230Z,23.92
2024-03-09T11:41:10.108Z,24.49
2024-03-09T11:44:01.266Z,25.29
2024-03-09T11:46:50.241Z,26.10
2024-03-09T11:49:41.160Z,26.86
2024-03-09T11:52:31.700Z,27.31
2024-03-09T11:55:21.972Z,27.60
2024-03-09T11:58:09.797Z,27.39
2024-03-09T12:00:57.805Z,27.33
2024-03-09T12:03:45.226Z,27.86
2024-03-09T12:06:33.075Z,28.35
2024-03-09T12:09:23.170Z,28.92
2024-03-09T12:12:15.855Z,30.02
2024-03-09T12:15:05.310Z,30.88
2024-03-09T12:17:53.831Z,31.71
2024-03-09T12:20:42.181Z,32.43
2024-03-09T12:23:30.064Z,33.17
2024-03-09T12:26:17.786Z,33.65
2024-03-09T12:29:08.411Z,33.83
2024-03-09T12:31:57.429Z,34.15
2024-03-09T12:34:45.356Z,34.56
2024-03-09T12:37:36.327Z,34.70
2024-03-09T12:40:24.020Z,34.73
2024-03-09T12:43:13.522Z,35.04
2024-03-09T12:46:02.527Z,35.51
2024-03-09T12:48:50.402Z,36.44
2024-03-09T12:51:38.693Z,37.33
2024-03-09T12:54:29.587Z,38.16
2024-03-09T12:57:21.655Z,39.03
2024-03-09T13:00:20.528Z,40.06
2024-03-09T13:03:08.122Z,40.44
2024-03-09T13:05:55.543Z,41.10
2024-03-09T13:08:44.582Z,41.87
2024-03-09T13:11:32.506Z,42.32
2024-03-09T13:14:23.497Z,42.89
2024-03-09T13:17:11.477Z,44.38
2024-03-09T13:19:59.213Z,43.85
2024-03-09T13:22:48.870Z,44.28
2024-03-09T13:25:36.754Z,45.34
2024-03-09T13:28:26.850Z,46.39
2024-03-09T13:31:15.816Z,46.67
2024-03-09T13:34:07.242Z,46.59
2024-03-09T13:36:55.187Z,46.89
2024-03-09T13:39:44.267Z,47.06
2024-03-09T13:42:32.009Z,47.40
2024-03-09T13:45:20.930Z,47.97
2024-03-09T13:48:17.378Z,48.41
2024-03-09T13:51:05.668Z,48.93
2024-03-09T13:53:53.076Z,49.53
2024-03-09T13:56:41.004Z,50.25
2024-03-09T13:59:30.052Z,50.85
2024-03-09T14:02:18.282Z,51.04
2024-03-09T14:05:09.008Z,51.47
2024-03-09T14:07:58.349Z,52.81
2024-03-09T14:10:47.430Z,52.56
2024-03-09T14:13:36.622Z,52.77
2024-03-09T14:16:27.700Z,53.18
2024-03-09T14:19:18.890Z,54.31
2024-03-09T14:22:06.735Z,54.42
2024-03-09T14:24:54.351Z,55.15
2024-03-09T14:27:42.274Z,56.48
2024-03-09T14:30:41.073Z,56.01
2024-03-09T14:33:29.450Z,55.86
2024-03-09T14:36:20.019Z,56.52
2024-03-09T14:39:10.952Z,56.96
2024-03-09T14:41:58.594Z,57.82
2024-03-09T14:44:46.868Z,57.68
2024-03-09T14:47:35.081Z,58.19
2024-03-09T14:50:22.932Z,58.13
2024-03-09T14:53:14.950Z,61.43
2024-03-09T14:56:03.171Z,60.60
2024-03-09T14:58:50.794Z,58.20
2024-03-09T15:01:39.001Z,55.06
2024-03-09T15:04:29.363Z,55.63
2024-03-09T15:07:17.754Z,56.48
2024-03-09T15:10:06.052Z,57.00
2024-03-09T15:12:53.742Z,57.40
2024-03-09T15:15:41.929Z,58.01
2024-03-09T15:18:29.656Z,58.81
2024-03-09T15:21:17.277Z,59.43
2024-03-09T15:24:05.568Z,60.04
2024-03-09T15:26:54.125Z,60.52
2024-03-09T15:29:42.058Z,63.48
2024-03-09T15:32:30.031Z,59.00
2024-03-09T15:35:19.058Z,56.96
2024-03-09T15:38:06.992Z,58.14
2024-03-09T15:40:56.044Z,59.03
2024-03-09T15:43:47.358Z,59.24
2024-03-09T15:46:37.359Z,59.92
2024-03-09T15:49:25.520Z,60.53
2024-03-09T15:52:15.028Z,61.14
2024-03-09T15:55:07.406Z,62.04
2024-03-09T15:57:55.185Z,65.55
2024-03-09T16:00:43.821Z,59.10
2024-03-09T16:03:36.221Z,54.89
2024-03-09T16:06:24.138Z,55.67
2024-03-09T16:09:15.372Z,57.50
2024-03-09T16:12:03.350Z,58.13
2024-03-09T16:14:52.590Z,59.64
2024-03-09T16:17:40.547Z,61.02
2024-03-09T16:20:33.352Z,62.61
2024-03-09T16:23:21.072Z,61.21
2024-03-09T16:26:08.552Z,63.75
2024-03-09T16:28:55.948Z,58.27
2024-03-09T16:31:43.803Z,55.92
2024-03-09T16:34:33.951Z,56.11
2024-03-09T16:37:21.293Z,57.79
2024-03-09T16:40:16.152Z,59.65
2024-03-09T16:43:06.411Z,62.84
2024-03-09T16:45:58.989Z,65.25
2024-03-09T16:48:46.696Z,63.29
2024-03-09T16:51:35.191Z,62.02
2024-03-09T16:54:23.106Z,58.22
2024-03-09T16:57:11.089Z,54.54
2024-03-09T16:59:58.656Z,57.98
2024-03-09T17:02:46.950Z,58.61
2024-03-09T17:05:34.777Z,59.86
2024-03-09T17:08:22.636Z,61.75
2024-03-09T17:11:11.915Z,65.23
2024-03-09T17:13:59.887Z,65.37
2024-03-09T17:16:48.078Z,63.14
2024-03-09T17:19:38.353Z,62.65
2024-03-09T17:22:27.031Z,59.80
2024-03-09T17:25:16.354Z,55.20
2024-03-09T17:28:06.873Z,54.02
2024-03-09T17:30:57.761Z,55.29
2024-03-09T17:33:45.318Z,57.47
2024-03-09T17:36:33.131Z,59.03
2024-03-09T17:39:23.809Z,60.22
2024-03-09T17:42:13.916Z,61.05
2024-03-09T17:45:01.755Z,65.69
2024-03-09T17:47:52.532Z,70.40
2024-03-09T17:50:40.503Z,65.68
2024-03-09T17:53:31.184Z,63.79
2024-03-09T17:56:19.205Z,63.18
2024-03-09T17:59:07.274Z,60.04
2024-03-09T18:01:55.441Z,57.21
2024-03-09T18:04:42.940Z,57.35
2024-03-09T18:07:30.687Z,57.31
2024-03-09T18:10:18.510Z,58.43
2024-03-09T18:13:11.986Z,59.56
2024-03-09T18:16:00.428Z,60.38
2024-03-09T18:18:50.737Z,63.20
2024-03-09T18:21:38.421Z,69.01
2024-03-09T18:24:25.745Z,66.21
2024-03-09T18:27:15.664Z,65.76
2024-03-09T18:30:03.242Z,65.49
2024-03-09T18:32:54.346Z,64.00
2024-03-09T18:35:43.320Z,63.11
2024-03-09T18:38:32.526Z,61.74
2024-03-09T18:41:22.189Z,60.50
2024-03-09T18:44:10.161Z,59.83
2024-03-09T18:46:59.359Z,56.58
2024-03-09T18:49:48.456Z,56.66
2024-03-09T18:52:38.171Z,59.08
2024-03-09T18:55:27.576Z,58.94
2024-03-09T18:58:15.138Z,59.68
2024-03-09T19:01:03.613Z,60.58
2024-03-09T19:03:51.948Z,66.47
2024-03-09T19:06:41.931Z,69.70
2024-03-09T19:09:32.016Z,69.48
2024-03-09T19:12:20.169Z,67.98
2024-03-09T19:15:14.298Z,66.21
2024-03-09T19:18:02.750Z,64.47
2024-03-09T19:20:50.612Z,61.02
2024-03-09T19:23:40.950Z,59.50
2024-03-09T19:26:29.080Z,61.03
2024-03-09T19:29:17.691Z,61.40
2024-03-09T19:32:06.525Z,66.57
2024-03-09T19:34:54.014Z,65.86
2024-03-09T19:37:43.432Z,67.11
2024-03-09T19:40:31.880Z,66.14
2024-03-09T19:43:19.498Z,65.23
2024-03-09T19:46:07.120Z,63.88
2024-03-09T19:48:55.009Z,61.94
2024-03-09T19:51:42.897Z,57.85
2024-03-09T19:54:32.180Z,57.77
2024-03-09T19:57:19.905Z,58.16
2024-03-09T20:00:20.349Z,59.83
2024-03-09T20:03:14.615Z,65.30
2024-03-09T20:06:03.884Z,66.97
2024-03-09T20:08:51.770Z,61.48
2024-03-09T20:11:39.775Z,64.49
2024-03-09T20:14:28.587Z,64.11
2024-03-09T20:17:17.447Z,60.37
2024-03-09T20:20:10.448Z,58.20
2024-03-09T20:22:58.952Z,58.18
2024-03-09T20:25:47.094Z,59.44
2024-03-09T20:28:34.982Z,60.97
2024-03-09T20:31:23.223Z,64.15
2024-03-09T20:34:10.948Z,64.90
2024-03-09T20:36:58.670Z,63.99
2024-03-09T20:39:46.240Z,62.53
2024-03-09T20:42:34.106Z,59.30
2024-03-09T20:45:23.017Z,58.41
2024-03-09T20:48:12.851Z,60.14
2024-03-09T20:51:02.202Z,63.44
2024-03-09T20:53:56.083Z,67.19
2024-03-09T20:56:43.623Z,65.46
2024-03-09T20:59:33.804Z,64.08
2024-03-09T21:02:30.018Z,60.26
2024-03-09T21:05:17.617Z,58.27
2024-03-09T21:08:06.340Z,58.76
2024-03-09T21:10:53.883Z,60.70
2024-03-09T21:13:41.901Z,63.88
2024-03-09T21:16:30.023Z,63.80
2024-03-09T21:19:18.112Z,65.76
2024-03-09T21:22:07.672Z,62.91
2024-03-09T21:24:55.077Z,61.22
2024-03-09T21:27:45.742Z,58.70
2024-03-09T21:30:33.550Z,59.60
2024-03-09T21:33:22.002Z,62.30
2024-03-09T21:36:09.307Z,62.55
2024-03-09T21:38:57.291Z,62.26
2024-03-09T21:41:45.580Z,59.93
2024-03-09T21:44:34.073Z,58.59
2024-03-09T21:47:21.525Z,61.25
2024-03-09T21:50:12.904Z,64.31
2024-03-09T21:53:02.290Z,65.86
2024-03-09T21:55:50.308Z,63.91
2024-03-09T21:58:38.324Z,61.10
2024-03-09T22:01:25.884Z,60.55
2024-03-09T22:04:13.456Z,58.56
2024-03-09T22:07:00.828Z,59.32
2024-03-09T22:09:48.562Z,61.49
2024-03-09T22:12:36.528Z,65.38
2024-03-09T22:15:27.003Z,66.00
2024-03-09T22:18:15.394Z,66.77
2024-03-09T22:21:03.317Z,65.74
2024-03-09T22:23:53.154Z,63.55
2024-03-09T22:26:41.126Z,61.94
2024-03-09T22:29:32.095Z,62.06
2024-03-09T22:32:20.713Z,61.36
2024-03-09T22:35:14.532Z,58.10
2024-03-09T22:38:02.345Z,56.79
2024-03-09T22:40:50.029Z,58.26
2024-03-09T22:43:37.313Z,61.89
2024-03-09T22:46:24.770Z,65.43
2024-03-09T22:49:12.082Z,65.50
2024-03-09T22:52:00.533Z,63.33
2024-03-09T22:54:50.461Z,62.10
2024-03-09T22:57:38.824Z,60.21
2024-03-09T23:00:26.664Z,58.93
2024-03-09T23:03:14.449Z,60.44
2024-03-09T23:06:02.367Z,60.91
2024-03-09T23:08:50.038Z,63.69
2024-03-09T23:11:37.490Z,64.79
2024-03-09T23:14:25.235Z,64.46
2024-03-09T23:17:13.105Z,60.96
2024-03-09T23:20:02.249Z,58.76
2024-03-09T23:22:51.829Z,61.36
2024-03-09T23:25:39.649Z,63.47
2024-03-09T23:28:27.396Z,63.73
2024-03-09T23:31:15.148Z,61.87
2024-03-09T23:34:02.909Z,62.92
2024-03-09T23:36:51.015Z,60.10
2024-03-09T23:39:38.528Z,59.63
2024-03-09T23:42:26.280Z,60.67
2024-03-09T23:45:17.516Z,64.43
2024-03-09T23:48:06.336Z,65.31
2024-03-09T23:50:54.592Z,65.27
2024-03-09T23:53:43.663Z,63.75
2024-03-09T23:56:31.106Z,61.55
2024-03-09T23:59:19.689Z,59.45
